sensor_id;sensor_type;location;lat;lon;timestamp;temperature;humidity
37342;DHT22;58643;49.052;8.518;2022-07-29T00:01:41;21.10;98.20
37342;DHT22;58643;49.052;8.518;2022-07-29T00:04:07;20.90;98.60
37342;DHT22;58643;49.052;8.518;2022-07-29T00:06:32;20.80;98.60
37342;DHT22;58643;49.052;8.518;2022-07-29T00:08:58;20.80;98.90
37342;DHT22;58643;49.052;8.518;2022-07-29T00:11:23;20.80;99.40
37342;DHT22;58643;49.052;8.518;2022-07-29T00:13:49;21.10;99.30
37342;DHT22;58643;49.052;8.518;2022-07-29T00:16:14;20.60;99.60
37342;DHT22;58643;49.052;8.518;2022-07-29T00:18:40;20.50;99.90
37342;DHT22;58643;49.052;8.518;2022-07-29T00:21:06;20.60;99.90
37342;DHT22;58643;49.052;8.518;2022-07-29T00:23:31;20.60;99.90
37342;DHT22;58643;49.052;8.518;2022-07-29T00:25:57;20.60;99.90
37342;DHT22;58643;49.052;8.518;2022-07-29T00:28:22;20.50;99.90
37342;DHT22;58643;49.052;8.518;2022-07-29T00:30:48;20.60;99.90
37342;DHT22;58643;49.052;8.518;2022-07-29T00:33:13;20.30;99.90
37342;DHT22;58643;49.052;8.518;2022-07-29T00:35:39;21.40;99.90
37342;DHT22;58643;49.052;8.518;2022-07-29T00:38:15;20.50;99.90
37342;DHT22;58643;49.052;8.518;2022-07-29T00:40:41;20.40;99.90
37342;DHT22;58643;49.052;8.518;2022-07-29T00:43:07;20.40;99.90
37342;DHT22;58643;49.052;8.518;2022-07-29T00:45:33;20.40;99.90
37342;DHT22;58643;49.052;8.518;2022-07-29T00:47:59;20.60;99.90
37342;DHT22;58643;49.052;8.518;2022-07-29T00:50:25;21.70;99.90
37342;DHT22;58643;49.052;8.518;2022-07-29T00:52:52;20.90;99.90
37342;DHT22;58643;49.052;8.518;2022-07-29T00:55:17;20.80;99.90
37342;DHT22;58643;49.052;8.518;2022-07-29T00:57:44;20.80;99.90
37342;DHT22;58643;49.052;8.518;2022-07-29T01:00:16;20.70;99.90
37342;DHT22;58643;49.052;8.518;2022-07-29T01:02:43;20.70;99.90
37342;DHT22;58643;49.052;8.518;2022-07-29T01:05:09;20.70;99.90
37342;DHT22;58643;49.052;8.518;2022-07-29T01:07:36;20.60;99.90
37342;DHT22;58643;49.052;8.518;2022-07-29T01:10:06;20.70;99.90
37342;DHT22;58643;49.052;8.518;2022-07-29T01:12:33;20.70;99.90
37342;DHT22;58643;49.052;8.518;2022-07-29T01:15:01;20.70;99.90
37342;DHT22;58643;49.052;8.518;2022-07-29T01:17:44;21.70;99.90
37342;DHT22;58643;49.052;8.518;2022-07-29T01:20:18;20.60;99.90
37342;DHT22;58643;49.052;8.518;2022-07-29T01:31:03;20.50;99.90
37342;DHT22;58643;49.052;8.518;2022-07-29T01:33:32;20.40;99.90
37342;DHT22;58643;49.052;8.518;2022-07-29T01:36:19;20.40;99.90
37342;DHT22;58643;49.052;8.518;2022-07-29T01:38:54;20.50;99.90
37342;DHT22;58643;49.052;8.518;2022-07-29T01:41:24;20.40;99.90
37342;DHT22;58643;49.052;8.518;2022-07-29T01:43:59;20.40;99.90
37342;DHT22;58643;49.052;8.518;2022-07-29T01:46:50;20.20;99.90
37342;DHT22;58643;49.052;8.518;2022-07-29T01:49:21;20.50;99.90
37342;DHT22;58643;49.052;8.518;2022-07-29T01:52:01;20.20;99.90
37342;DHT22;58643;49.052;8.518;2022-07-29T01:54:38;20.20;99.90
37342;DHT22;58643;49.052;8.518;2022-07-29T01:57:08;20.10;99.90
37342;DHT22;58643;49.052;8.518;2022-07-29T01:59:35;20.00;99.90
37342;DHT22;58643;49.052;8.518;2022-07-29T02:02:01;20.10;99.90
37342;DHT22;58643;49.052;8.518;2022-07-29T02:04:28;20.00;99.90
37342;DHT22;58643;49.052;8.518;2022-07-29T02:06:58;20.00;99.90
37342;DHT22;58643;49.052;8.518;2022-07-29T02:09:26;20.20;99.90
37342;DHT22;58643;49.052;8.518;2022-07-29T02:11:53;20.20;99.90
37342;DHT22;58643;49.052;8.518;2022-07-29T02:14:21;19.90;99.90
37342;DHT22;58643;49.052;8.518;2022-07-29T02:16:50;20.00;99.90
37342;DHT22;58643;49.052;8.518;2022-07-29T02:19:18;20.00;99.90
37342;DHT22;58643;49.052;8.518;2022-07-29T02:21:45;20.20;99.90
37342;DHT22;58643;49.052;8.518;2022-07-29T02:24:12;20.20;99.90
37342;DHT22;58643;49.052;8.518;2022-07-29T02:26:41;20.20;99.90
37342;DHT22;58643;49.052;8.518;2022-07-29T02:29:09;20.20;99.90
37342;DHT22;58643;49.052;8.518;2022-07-29T02:31:36;20.50;99.90
37342;DHT22;58643;49.052;8.518;2022-07-29T02:34:06;19.80;99.90
37342;DHT22;58643;49.052;8.518;2022-07-29T02:36:33;19.90;99.90
37342;DHT22;58643;49.052;8.518;2022-07-29T02:39:00;19.90;99.90
37342;DHT22;58643;49.052;8.518;2022-07-29T02:41:37;19.80;99.90
37342;DHT22;58643;49.052;8.518;2022-07-29T02:44:25;20.00;99.90
37342;DHT22;58643;49.052;8.518;2022-07-29T02:49:51;19.70;99.90
37342;DHT22;58643;49.052;8.518;2022-07-29T02:52:27;20.00;99.90
37342;DHT22;58643;49.052;8.518;2022-07-29T02:54:59;19.80;99.90
37342;DHT22;58643;49.052;8.518;2022-07-29T02:57:41;19.30;99.90
37342;DHT22;58643;49.052;8.518;2022-07-29T03:00:09;19.20;99.90
37342;DHT22;58643;49.052;8.518;2022-07-29T03:02:41;19.10;99.90
37342;DHT22;58643;49.052;8.518;2022-07-29T03:05:10;19.40;99.90
37342;DHT22;58643;49.052;8.518;2022-07-29T03:07:38;19.20;99.90
37342;DHT22;58643;49.052;8.518;2022-07-29T03:10:06;19.20;99.90
37342;DHT22;58643;49.052;8.518;2022-07-29T03:12:34;18.60;99.90
37342;DHT22;58643;49.052;8.518;2022-07-29T03:15:01;19.20;99.90
37342;DHT22;58643;49.052;8.518;2022-07-29T03:17:27;19.10;99.90
37342;DHT22;58643;49.052;8.518;2022-07-29T03:19:53;20.60;99.90
37342;DHT22;58643;49.052;8.518;2022-07-29T03:22:20;19.40;99.90
37342;DHT22;58643;49.052;8.518;2022-07-29T03:24:46;19.00;99.90
37342;DHT22;58643;49.052;8.518;2022-07-29T03:27:11;18.90;99.90
37342;DHT22;58643;49.052;8.518;2022-07-29T03:29:37;18.90;99.90
37342;DHT22;58643;49.052;8.518;2022-07-29T03:32:04;18.90;99.90
37342;DHT22;58643;49.052;8.518;2022-07-29T03:34:31;18.70;99.90
37342;DHT22;58643;49.052;8.518;2022-07-29T03:36:56;19.70;99.90
37342;DHT22;58643;49.052;8.518;2022-07-29T03:39:25;18.70;99.90
37342;DHT22;58643;49.052;8.518;2022-07-29T03:41:55;18.60;99.90
37342;DHT22;58643;49.052;8.518;2022-07-29T03:44:22;18.60;99.90
37342;DHT22;58643;49.052;8.518;2022-07-29T03:46:50;18.80;99.90
37342;DHT22;58643;49.052;8.518;2022-07-29T03:49:18;19.60;99.90
37342;DHT22;58643;49.052;8.518;2022-07-29T03:51:45;18.70;99.90
37342;DHT22;58643;49.052;8.518;2022-07-29T03:54:11;18.30;99.90
37342;DHT22;58643;49.052;8.518;2022-07-29T03:56:43;18.20;99.90
37342;DHT22;58643;49.052;8.518;2022-07-29T03:59:13;18.50;99.90
37342;DHT22;58643;49.052;8.518;2022-07-29T04:01:41;18.20;99.90
37342;DHT22;58643;49.052;8.518;2022-07-29T04:04:07;18.00;99.90
37342;DHT22;58643;49.052;8.518;2022-07-29T04:06:44;18.10;99.90
37342;DHT22;58643;49.052;8.518;2022-07-29T04:09:10;19.10;99.90
37342;DHT22;58643;49.052;8.518;2022-07-29T04:11:38;18.10;99.90
37342;DHT22;58643;49.052;8.518;2022-07-29T04:14:04;18.70;99.90
37342;DHT22;58643;49.052;8.518;2022-07-29T04:16:31;18.60;99.90
37342;DHT22;58643;49.052;8.518;2022-07-29T04:18:56;17.90;99.90
37342;DHT22;58643;49.052;8.518;2022-07-29T04:21:22;18.10;99.90
37342;DHT22;58643;49.052;8.518;2022-07-29T04:23:48;18.20;99.90
37342;DHT22;58643;49.052;8.518;2022-07-29T04:26:18;17.90;99.90
37342;DHT22;58643;49.052;8.518;2022-07-29T04:28:43;17.90;99.90
37342;DHT22;58643;49.052;8.518;2022-07-29T04:31:10;17.90;99.90
37342;DHT22;58643;49.052;8.518;2022-07-29T04:33:36;18.00;99.90
37342;DHT22;58643;49.052;8.518;2022-07-29T04:36:01;18.10;99.90
37342;DHT22;58643;49.052;8.518;2022-07-29T04:38:27;18.10;99.90
37342;DHT22;58643;49.052;8.518;2022-07-29T04:40:52;18.20;99.90
37342;DHT22;58643;49.052;8.518;2022-07-29T04:43:18;18.10;99.90
37342;DHT22;58643;49.052;8.518;2022-07-29T04:45:44;18.60;99.90
37342;DHT22;58643;49.052;8.518;2022-07-29T04:48:09;18.10;99.90
37342;DHT22;58643;49.052;8.518;2022-07-29T04:50:38;18.10;99.90
37342;DHT22;58643;49.052;8.518;2022-07-29T04:53:03;18.70;99.90
37342;DHT22;58643;49.052;8.518;2022-07-29T04:55:29;18.00;99.90
37342;DHT22;58643;49.052;8.518;2022-07-29T04:57:54;18.10;99.90
37342;DHT22;58643;49.052;8.518;2022-07-29T05:00:20;18.40;99.90
37342;DHT22;58643;49.052;8.518;2022-07-29T05:02:46;18.20;99.90
37342;DHT22;58643;49.052;8.518;2022-07-29T05:05:11;18.80;99.90
37342;DHT22;58643;49.052;8.518;2022-07-29T05:07:37;19.10;99.90
37342;DHT22;58643;49.052;8.518;2022-07-29T05:10:03;18.50;99.90
37342;DHT22;58643;49.052;8.518;2022-07-29T05:12:28;18.50;99.90
37342;DHT22;58643;49.052;8.518;2022-07-29T05:14:54;18.80;99.90
37342;DHT22;58643;49.052;8.518;2022-07-29T05:17:20;18.70;99.90
37342;DHT22;58643;49.052;8.518;2022-07-29T05:19:46;20.30;99.90
37342;DHT22;58643;49.052;8.518;2022-07-29T05:22:11;19.10;99.90
37342;DHT22;58643;49.052;8.518;2022-07-29T05:24:37;18.40;99.90
37342;DHT22;58643;49.052;8.518;2022-07-29T05:27:02;18.80;99.90
37342;DHT22;58643;49.052;8.518;2022-07-29T05:29:28;18.70;99.90
37342;DHT22;58643;49.052;8.518;2022-07-29T05:31:54;18.80;99.90
37342;DHT22;58643;49.052;8.518;2022-07-29T05:34:19;19.00;99.90
37342;DHT22;58643;49.052;8.518;2022-07-29T05:36:45;19.40;99.90
37342;DHT22;58643;49.052;8.518;2022-07-29T05:39:11;19.20;99.90
37342;DHT22;58643;49.052;8.518;2022-07-29T05:41:38;19.70;99.90
37342;DHT22;58643;49.052;8.518;2022-07-29T05:44:04;19.70;99.90
37342;DHT22;58643;49.052;8.518;2022-07-29T05:46:30;19.80;99.90
37342;DHT22;58643;49.052;8.518;2022-07-29T05:48:55;19.80;99.90
37342;DHT22;58643;49.052;8.518;2022-07-29T05:51:21;21.60;99.90
37342;DHT22;58643;49.052;8.518;2022-07-29T05:53:47;20.90;99.90
37342;DHT22;58643;49.052;8.518;2022-07-29T05:56:12;20.60;99.90
37342;DHT22;58643;49.052;8.518;2022-07-29T05:58:38;20.40;99.90
37342;DHT22;58643;49.052;8.518;2022-07-29T06:01:03;20.80;99.90
37342;DHT22;58643;49.052;8.518;2022-07-29T06:03:29;20.90;99.90
37342;DHT22;58643;49.052;8.518;2022-07-29T06:05:55;20.60;99.90
37342;DHT22;58643;49.052;8.518;2022-07-29T06:08:21;20.70;99.90
37342;DHT22;58643;49.052;8.518;2022-07-29T06:10:47;20.80;99.90
37342;DHT22;58643;49.052;8.518;2022-07-29T06:13:13;20.60;99.90
37342;DHT22;58643;49.052;8.518;2022-07-29T06:15:41;21.00;99.90
37342;DHT22;58643;49.052;8.518;2022-07-29T06:18:07;21.00;99.90
37342;DHT22;58643;49.052;8.518;2022-07-29T06:20:34;21.20;99.90
37342;DHT22;58643;49.052;8.518;2022-07-29T06:23:00;21.40;99.90
37342;DHT22;58643;49.052;8.518;2022-07-29T06:25:26;21.60;99.90
37342;DHT22;58643;49.052;8.518;2022-07-29T06:27:54;21.20;99.90
37342;DHT22;58643;49.052;8.518;2022-07-29T06:30:20;20.90;99.90
37342;DHT22;58643;49.052;8.518;2022-07-29T06:32:45;21.40;99.90
37342;DHT22;58643;49.052;8.518;2022-07-29T06:35:11;21.20;99.90
37342;DHT22;58643;49.052;8.518;2022-07-29T06:37:37;21.30;99.90
37342;DHT22;58643;49.052;8.518;2022-07-29T06:40:03;21.20;99.90
37342;DHT22;58643;49.052;8.518;2022-07-29T06:42:47;21.40;99.90
37342;DHT22;58643;49.052;8.518;2022-07-29T06:45:13;21.30;99.90
37342;DHT22;58643;49.052;8.518;2022-07-29T06:47:39;21.40;99.90
37342;DHT22;58643;49.052;8.518;2022-07-29T06:50:05;21.60;99.60
37342;DHT22;58643;49.052;8.518;2022-07-29T06:52:31;21.70;99.10
37342;DHT22;58643;49.052;8.518;2022-07-29T06:54:56;21.50;99.40
37342;DHT22;58643;49.052;8.518;2022-07-29T06:57:22;22.00;99.30
37342;DHT22;58643;49.052;8.518;2022-07-29T06:59:48;22.00;98.70
37342;DHT22;58643;49.052;8.518;2022-07-29T07:02:13;22.10;98.60
37342;DHT22;58643;49.052;8.518;2022-07-29T07:04:39;22.00;98.00
37342;DHT22;58643;49.052;8.518;2022-07-29T07:07:05;22.30;97.80
37342;DHT22;58643;49.052;8.518;2022-07-29T07:09:30;22.30;98.30
37342;DHT22;58643;49.052;8.518;2022-07-29T07:11:56;22.40;97.70
37342;DHT22;58643;49.052;8.518;2022-07-29T07:14:22;22.50;98.00
37342;DHT22;58643;49.052;8.518;2022-07-29T07:16:47;22.70;97.80
37342;DHT22;58643;49.052;8.518;2022-07-29T07:19:13;23.10;97.80
37342;DHT22;58643;49.052;8.518;2022-07-29T07:21:38;22.70;97.50
37342;DHT22;58643;49.052;8.518;2022-07-29T07:24:04;22.50;97.70
37342;DHT22;58643;49.052;8.518;2022-07-29T07:26:30;22.70;97.60
37342;DHT22;58643;49.052;8.518;2022-07-29T07:28:56;23.00;97.60
37342;DHT22;58643;49.052;8.518;2022-07-29T07:31:21;22.90;97.40
37342;DHT22;58643;49.052;8.518;2022-07-29T07:33:47;23.10;97.40
37342;DHT22;58643;49.052;8.518;2022-07-29T07:36:13;23.20;97.00
37342;DHT22;58643;49.052;8.518;2022-07-29T07:38:39;23.20;96.70
37342;DHT22;58643;49.052;8.518;2022-07-29T07:41:04;23.40;97.00
37342;DHT22;58643;49.052;8.518;2022-07-29T07:43:30;23.20;96.90
37342;DHT22;58643;49.052;8.518;2022-07-29T07:45:57;23.30;96.70
37342;DHT22;58643;49.052;8.518;2022-07-29T07:48:22;23.40;96.00
37342;DHT22;58643;49.052;8.518;2022-07-29T07:50:48;23.60;96.20
37342;DHT22;58643;49.052;8.518;2022-07-29T07:53:14;23.60;95.90
37342;DHT22;58643;49.052;8.518;2022-07-29T07:55:43;23.90;95.90
37342;DHT22;58643;49.052;8.518;2022-07-29T07:58:09;23.70;95.90
37342;DHT22;58643;49.052;8.518;2022-07-29T08:00:35;23.80;95.40
37342;DHT22;58643;49.052;8.518;2022-07-29T08:03:00;23.80;95.00
37342;DHT22;58643;49.052;8.518;2022-07-29T08:05:26;24.30;94.70
37342;DHT22;58643;49.052;8.518;2022-07-29T08:07:52;24.40;94.30
37342;DHT22;58643;49.052;8.518;2022-07-29T08:10:18;24.50;94.00
37342;DHT22;58643;49.052;8.518;2022-07-29T08:13:05;24.50;94.00
37342;DHT22;58643;49.052;8.518;2022-07-29T08:15:31;24.70;93.50
37342;DHT22;58643;49.052;8.518;2022-07-29T08:17:57;24.80;93.90
37342;DHT22;58643;49.052;8.518;2022-07-29T08:20:23;24.90;92.40
37342;DHT22;58643;49.052;8.518;2022-07-29T08:22:48;24.80;92.80
37342;DHT22;58643;49.052;8.518;2022-07-29T08:25:14;24.80;92.70
37342;DHT22;58643;49.052;8.518;2022-07-29T08:27:40;25.20;91.40
37342;DHT22;58643;49.052;8.518;2022-07-29T08:30:06;24.90;90.50
37342;DHT22;58643;49.052;8.518;2022-07-29T08:32:31;24.80;90.00
37342;DHT22;58643;49.052;8.518;2022-07-29T08:34:57;24.80;90.50
37342;DHT22;58643;49.052;8.518;2022-07-29T08:37:23;24.70;89.70
37342;DHT22;58643;49.052;8.518;2022-07-29T08:39:48;24.60;90.30
37342;DHT22;58643;49.052;8.518;2022-07-29T08:42:15;24.70;90.90
37342;DHT22;58643;49.052;8.518;2022-07-29T08:44:42;24.80;90.20
37342;DHT22;58643;49.052;8.518;2022-07-29T08:47:08;25.00;89.80
37342;DHT22;58643;49.052;8.518;2022-07-29T08:49:34;25.00;89.80
37342;DHT22;58643;49.052;8.518;2022-07-29T08:52:01;25.30;88.40
37342;DHT22;58643;49.052;8.518;2022-07-29T08:54:27;25.40;87.80
37342;DHT22;58643;49.052;8.518;2022-07-29T08:56:53;25.60;86.80
37342;DHT22;58643;49.052;8.518;2022-07-29T08:59:21;25.50;86.10
37342;DHT22;58643;49.052;8.518;2022-07-29T09:01:48;25.70;85.40
37342;DHT22;58643;49.052;8.518;2022-07-29T09:04:18;25.60;84.40
37342;DHT22;58643;49.052;8.518;2022-07-29T09:06:47;25.90;82.10
37342;DHT22;58643;49.052;8.518;2022-07-29T09:09:13;26.00;81.20
37342;DHT22;58643;49.052;8.518;2022-07-29T09:11:40;25.80;80.40
37342;DHT22;58643;49.052;8.518;2022-07-29T09:14:06;25.80;80.80
37342;DHT22;58643;49.052;8.518;2022-07-29T09:16:49;25.80;82.30
37342;DHT22;58643;49.052;8.518;2022-07-29T09:21:50;25.90;79.70
37342;DHT22;58643;49.052;8.518;2022-07-29T09:24:45;26.00;79.80
37342;DHT22;58643;49.052;8.518;2022-07-29T09:27:23;25.90;80.50
37342;DHT22;58643;49.052;8.518;2022-07-29T09:32:25;26.70;80.60
37342;DHT22;58643;49.052;8.518;2022-07-29T09:35:15;26.10;78.50
37342;DHT22;58643;49.052;8.518;2022-07-29T09:37:42;26.10;75.20
37342;DHT22;58643;49.052;8.518;2022-07-29T09:40:15;25.90;77.40
37342;DHT22;58643;49.052;8.518;2022-07-29T09:42:41;26.00;77.20
37342;DHT22;58643;49.052;8.518;2022-07-29T09:45:07;26.20;76.50
37342;DHT22;58643;49.052;8.518;2022-07-29T09:47:46;26.30;75.90
37342;DHT22;58643;49.052;8.518;2022-07-29T09:50:15;26.40;75.70
37342;DHT22;58643;49.052;8.518;2022-07-29T09:52:51;26.60;75.00
37342;DHT22;58643;49.052;8.518;2022-07-29T09:55:18;26.80;74.40
37342;DHT22;58643;49.052;8.518;2022-07-29T09:57:45;27.40;71.80
37342;DHT22;58643;49.052;8.518;2022-07-29T10:00:17;27.70;71.50
37342;DHT22;58643;49.052;8.518;2022-07-29T10:02:44;27.70;71.60
37342;DHT22;58643;49.052;8.518;2022-07-29T10:05:24;27.40;71.80
37342;DHT22;58643;49.052;8.518;2022-07-29T10:10:28;27.70;70.60
37342;DHT22;58643;49.052;8.518;2022-07-29T10:12:56;27.70;69.80
37342;DHT22;58643;49.052;8.518;2022-07-29T10:15:24;28.00;70.00
37342;DHT22;58643;49.052;8.518;2022-07-29T10:17:52;28.00;68.80
37342;DHT22;58643;49.052;8.518;2022-07-29T10:20:18;28.00;68.60
37342;DHT22;58643;49.052;8.518;2022-07-29T10:22:44;28.00;69.80
37342;DHT22;58643;49.052;8.518;2022-07-29T10:25:12;27.80;70.00
37342;DHT22;58643;49.052;8.518;2022-07-29T10:27:39;28.10;69.80
37342;DHT22;58643;49.052;8.518;2022-07-29T10:30:05;28.60;67.10
37342;DHT22;58643;49.052;8.518;2022-07-29T10:32:51;28.70;66.30
37342;DHT22;58643;49.052;8.518;2022-07-29T10:35:48;28.60;64.10
37342;DHT22;58643;49.052;8.518;2022-07-29T10:38:27;28.50;64.30
37342;DHT22;58643;49.052;8.518;2022-07-29T10:41:29;28.80;63.60
37342;DHT22;58643;49.052;8.518;2022-07-29T10:44:05;28.70;61.50
37342;DHT22;58643;49.052;8.518;2022-07-29T10:46:40;28.80;61.90
37342;DHT22;58643;49.052;8.518;2022-07-29T10:49:17;28.90;63.90
37342;DHT22;58643;49.052;8.518;2022-07-29T10:54:39;28.80;62.30
37342;DHT22;58643;49.052;8.518;2022-07-29T10:59:42;28.90;63.60
37342;DHT22;58643;49.052;8.518;2022-07-29T11:05:22;29.10;60.10
37342;DHT22;58643;49.052;8.518;2022-07-29T11:10:41;29.20;58.80
37342;DHT22;58643;49.052;8.518;2022-07-29T11:13:07;29.20;60.30
37342;DHT22;58643;49.052;8.518;2022-07-29T11:18:19;29.40;58.80
37342;DHT22;58643;49.052;8.518;2022-07-29T11:20:49;29.70;59.00
37342;DHT22;58643;49.052;8.518;2022-07-29T11:23:32;30.00;59.00
37342;DHT22;58643;49.052;8.518;2022-07-29T11:26:16;30.60;56.70
37342;DHT22;58643;49.052;8.518;2022-07-29T11:29:20;30.50;55.90
37342;DHT22;58643;49.052;8.518;2022-07-29T11:31:50;30.40;55.20
37342;DHT22;58643;49.052;8.518;2022-07-29T11:34:30;30.50;56.30
37342;DHT22;58643;49.052;8.518;2022-07-29T11:44:54;30.30;57.20
37342;DHT22;58643;49.052;8.518;2022-07-29T11:47:22;30.80;57.20
37342;DHT22;58643;49.052;8.518;2022-07-29T11:49:48;31.10;56.50
37342;DHT22;58643;49.052;8.518;2022-07-29T11:52:16;31.70;54.00
37342;DHT22;58643;49.052;8.518;2022-07-29T11:54:43;31.90;54.10
37342;DHT22;58643;49.052;8.518;2022-07-29T11:57:09;31.90;54.20
37342;DHT22;58643;49.052;8.518;2022-07-29T11:59:43;32.00;52.90
37342;DHT22;58643;49.052;8.518;2022-07-29T12:02:09;31.90;53.50
37342;DHT22;58643;49.052;8.518;2022-07-29T12:04:55;32.20;53.40
37342;DHT22;58643;49.052;8.518;2022-07-29T12:07:29;32.80;53.00
37342;DHT22;58643;49.052;8.518;2022-07-29T12:09:55;32.60;52.70
37342;DHT22;58643;49.052;8.518;2022-07-29T12:12:21;32.70;52.20
37342;DHT22;58643;49.052;8.518;2022-07-29T12:14:47;32.10;52.70
37342;DHT22;58643;49.052;8.518;2022-07-29T12:17:26;31.40;53.80
37342;DHT22;58643;49.052;8.518;2022-07-29T12:19:59;31.50;54.10
37342;DHT22;58643;49.052;8.518;2022-07-29T12:22:37;31.60;53.00
37342;DHT22;58643;49.052;8.518;2022-07-29T12:25:06;31.90;52.40
37342;DHT22;58643;49.052;8.518;2022-07-29T12:27:33;31.30;54.10
37342;DHT22;58643;49.052;8.518;2022-07-29T12:30:05;31.20;53.40
37342;DHT22;58643;49.052;8.518;2022-07-29T12:32:36;31.10;54.00
37342;DHT22;58643;49.052;8.518;2022-07-29T12:35:10;31.10;54.00
37342;DHT22;58643;49.052;8.518;2022-07-29T12:37:38;31.00;54.30
37342;DHT22;58643;49.052;8.518;2022-07-29T12:40:05;30.50;55.80
37342;DHT22;58643;49.052;8.518;2022-07-29T12:42:31;30.00;55.70
37342;DHT22;58643;49.052;8.518;2022-07-29T12:44:57;29.70;56.50
37342;DHT22;58643;49.052;8.518;2022-07-29T12:47:23;29.40;56.70
37342;DHT22;58643;49.052;8.518;2022-07-29T12:50:07;29.30;57.00
37342;DHT22;58643;49.052;8.518;2022-07-29T12:52:35;29.40;57.00
37342;DHT22;58643;49.052;8.518;2022-07-29T12:55:01;29.60;56.70
37342;DHT22;58643;49.052;8.518;2022-07-29T12:57:27;30.20;55.30
37342;DHT22;58643;49.052;8.518;2022-07-29T13:00:11;30.90;55.40
37342;DHT22;58643;49.052;8.518;2022-07-29T13:02:38;31.70;51.90
37342;DHT22;58643;49.052;8.518;2022-07-29T13:05:06;31.60;51.20
37342;DHT22;58643;49.052;8.518;2022-07-29T13:07:33;31.30;52.70
37342;DHT22;58643;49.052;8.518;2022-07-29T13:10:10;31.50;51.40
37342;DHT22;58643;49.052;8.518;2022-07-29T13:12:37;31.30;51.90
37342;DHT22;58643;49.052;8.518;2022-07-29T13:15:16;30.90;52.60
37342;DHT22;58643;49.052;8.518;2022-07-29T13:17:42;30.70;53.40
37342;DHT22;58643;49.052;8.518;2022-07-29T13:20:10;30.20;52.90
37342;DHT22;58643;49.052;8.518;2022-07-29T13:22:40;30.30;52.50
37342;DHT22;58643;49.052;8.518;2022-07-29T13:25:08;30.10;52.80
37342;DHT22;58643;49.052;8.518;2022-07-29T13:27:37;30.30;52.90
37342;DHT22;58643;49.052;8.518;2022-07-29T13:30:06;30.40;52.00
37342;DHT22;58643;49.052;8.518;2022-07-29T13:32:32;30.80;52.00
37342;DHT22;58643;49.052;8.518;2022-07-29T13:35:01;30.60;51.60
37342;DHT22;58643;49.052;8.518;2022-07-29T13:37:28;30.30;52.30
37342;DHT22;58643;49.052;8.518;2022-07-29T13:39:57;30.10;52.30
37342;DHT22;58643;49.052;8.518;2022-07-29T13:42:24;30.10;51.60
37342;DHT22;58643;49.052;8.518;2022-07-29T13:44:50;29.90;52.90
37342;DHT22;58643;49.052;8.518;2022-07-29T13:47:20;29.90;52.70
37342;DHT22;58643;49.052;8.518;2022-07-29T13:49:47;29.90;52.20
37342;DHT22;58643;49.052;8.518;2022-07-29T13:52:12;29.10;52.30
37342;DHT22;58643;49.052;8.518;2022-07-29T13:54:38;29.20;53.10
37342;DHT22;58643;49.052;8.518;2022-07-29T13:57:04;29.30;52.20
37342;DHT22;58643;49.052;8.518;2022-07-29T13:59:30;29.40;50.80
37342;DHT22;58643;49.052;8.518;2022-07-29T14:01:56;30.00;50.70
37342;DHT22;58643;49.052;8.518;2022-07-29T14:04:21;30.10;50.40
37342;DHT22;58643;49.052;8.518;2022-07-29T14:06:49;30.10;50.60
37342;DHT22;58643;49.052;8.518;2022-07-29T14:09:14;30.50;50.20
37342;DHT22;58643;49.052;8.518;2022-07-29T14:11:40;30.50;49.90
37342;DHT22;58643;49.052;8.518;2022-07-29T14:14:06;30.60;49.60
37342;DHT22;58643;49.052;8.518;2022-07-29T14:16:31;30.70;48.60
37342;DHT22;58643;49.052;8.518;2022-07-29T14:18:57;30.80;48.50
37342;DHT22;58643;49.052;8.518;2022-07-29T14:21:23;31.20;48.50
37342;DHT22;58643;49.052;8.518;2022-07-29T14:23:48;31.90;48.00
37342;DHT22;58643;49.052;8.518;2022-07-29T14:26:14;32.10;48.80
37342;DHT22;58643;49.052;8.518;2022-07-29T14:28:40;31.50;47.60
37342;DHT22;58643;49.052;8.518;2022-07-29T14:31:05;31.00;47.30
37342;DHT22;58643;49.052;8.518;2022-07-29T14:33:31;31.80;46.90
37342;DHT22;58643;49.052;8.518;2022-07-29T14:35:56;31.80;47.10
37342;DHT22;58643;49.052;8.518;2022-07-29T14:38:22;31.70;47.00
37342;DHT22;58643;49.052;8.518;2022-07-29T14:40:47;31.10;47.30
37342;DHT22;58643;49.052;8.518;2022-07-29T14:43:14;31.00;47.00
37342;DHT22;58643;49.052;8.518;2022-07-29T14:45:40;30.90;46.90
37342;DHT22;58643;49.052;8.518;2022-07-29T14:48:06;31.00;47.00
37342;DHT22;58643;49.052;8.518;2022-07-29T14:50:32;30.70;46.10
37342;DHT22;58643;49.052;8.518;2022-07-29T14:52:59;30.60;46.40
37342;DHT22;58643;49.052;8.518;2022-07-29T14:55:25;30.70;46.80
37342;DHT22;58643;49.052;8.518;2022-07-29T14:57:51;30.80;46.60
37342;DHT22;58643;49.052;8.518;2022-07-29T15:00:17;30.80;47.80
37342;DHT22;58643;49.052;8.518;2022-07-29T15:02:43;30.70;47.40
37342;DHT22;58643;49.052;8.518;2022-07-29T15:05:08;30.80;47.10
37342;DHT22;58643;49.052;8.518;2022-07-29T15:07:34;31.30;46.10
37342;DHT22;58643;49.052;8.518;2022-07-29T15:10:00;31.70;45.20
37342;DHT22;58643;49.052;8.518;2022-07-29T15:12:25;31.90;45.20
37342;DHT22;58643;49.052;8.518;2022-07-29T15:14:51;32.80;44.30
37342;DHT22;58643;49.052;8.518;2022-07-29T15:17:17;32.30;44.10
37342;DHT22;58643;49.052;8.518;2022-07-29T15:19:42;31.70;43.40
37342;DHT22;58643;49.052;8.518;2022-07-29T15:22:14;31.20;44.30
37342;DHT22;58643;49.052;8.518;2022-07-29T15:24:43;30.80;44.00
37342;DHT22;58643;49.052;8.518;2022-07-29T15:27:09;30.50;45.50
37342;DHT22;58643;49.052;8.518;2022-07-29T15:29:40;30.40;45.30
37342;DHT22;58643;49.052;8.518;2022-07-29T15:32:06;30.70;46.70
37342;DHT22;58643;49.052;8.518;2022-07-29T15:34:31;30.50;45.10
37342;DHT22;58643;49.052;8.518;2022-07-29T15:36:57;30.20;45.40
37342;DHT22;58643;49.052;8.518;2022-07-29T15:39:22;30.40;45.30
37342;DHT22;58643;49.052;8.518;2022-07-29T15:41:49;30.50;44.70
37342;DHT22;58643;49.052;8.518;2022-07-29T15:44:14;30.70;44.40
37342;DHT22;58643;49.052;8.518;2022-07-29T15:46:40;31.00;43.90
37342;DHT22;58643;49.052;8.518;2022-07-29T15:49:24;31.60;42.80
37342;DHT22;58643;49.052;8.518;2022-07-29T15:51:59;32.10;42.50
37342;DHT22;58643;49.052;8.518;2022-07-29T15:54:26;32.40;41.40
37342;DHT22;58643;49.052;8.518;2022-07-29T15:56:52;32.30;41.80
37342;DHT22;58643;49.052;8.518;2022-07-29T15:59:18;32.30;42.10
37342;DHT22;58643;49.052;8.518;2022-07-29T16:01:44;32.10;41.60
37342;DHT22;58643;49.052;8.518;2022-07-29T16:04:09;31.80;42.70
37342;DHT22;58643;49.052;8.518;2022-07-29T16:06:35;31.60;42.20
37342;DHT22;58643;49.052;8.518;2022-07-29T16:09:00;31.70;43.00
37342;DHT22;58643;49.052;8.518;2022-07-29T16:11:26;31.90;42.20
37342;DHT22;58643;49.052;8.518;2022-07-29T16:13:52;31.50;42.80
37342;DHT22;58643;49.052;8.518;2022-07-29T16:16:17;31.50;43.40
37342;DHT22;58643;49.052;8.518;2022-07-29T16:18:44;31.10;43.80